createdAt,value
2018-09-18T00:02:04.224Z,50.55
2018-09-18T00:04:34.554Z,52.13
2018-09-18T00:07:05.191Z,51.99
2018-09-18T00:09:35.626Z,53.11
2018-09-18T00:12:06.228Z,53.56
2018-09-18T00:14:37.064Z,53.50
2018-09-18T00:17:07.738Z,53.21
2018-09-18T00:19:38.244Z,52.17
2018-09-18T00:22:08.830Z,52.29
2018-09-18T00:24:40.396Z,52.55
2018-09-18T00:27:11.114Z,53.08
2018-09-18T00:29:41.783Z,53.16
2018-09-18T00:32:12.424Z,53.00
2018-09-18T00:34:42.986Z,53.64
2018-09-18T00:37:13.603Z,54.23
2018-09-18T00:39:44.087Z,53.76
2018-09-18T00:42:15.030Z,54.03
2018-09-18T00:44:45.649Z,52.66
2018-09-18T00:47:16.298Z,54.99
2018-09-18T00:49:47.283Z,53.89
2018-09-18T00:52:18.073Z,53.89
2018-09-18T00:54:49.383Z,54.26
2018-09-18T00:57:19.862Z,52.46
2018-09-18T00:59:50.318Z,52.25
2018-09-18T01:02:20.665Z,50.86
2018-09-18T01:04:52.496Z,49.83
2018-09-18T01:07:23.461Z,50.90
2018-09-18T01:09:53.944Z,51.05
2018-09-18T01:12:24.380Z,51.34
2018-09-18T01:14:56.352Z,50.53
2018-09-18T01:17:27.076Z,50.36
2018-09-18T01:19:58.067Z,50.33
2018-09-18T01:22:28.559Z,50.11
2018-09-18T01:24:59.059Z,49.86
2018-09-18T01:27:29.578Z,49.60
2018-09-18T01:30:00.226Z,50.55
2018-09-18T01:32:30.629Z,50.14
2018-09-18T01:35:02.117Z,50.60
2018-09-18T01:37:32.704Z,53.51
2018-09-18T01:40:03.241Z,52.15
2018-09-18T01:42:34.031Z,51.26
2018-09-18T01:45:05.557Z,50.74
2018-09-18T01:47:35.874Z,50.80
2018-09-18T01:50:06.643Z,50.66
2018-09-18T01:52:37.348Z,50.41
2018-09-18T01:55:07.810Z,50.57
2018-09-18T01:57:38.392Z,50.61
2018-09-18T02:00:08.896Z,49.91
2018-09-18T02:02:39.738Z,50.01
2018-09-18T02:05:10.271Z,50.67
2018-09-18T02:07:40.939Z,50.61
2018-09-18T02:10:11.826Z,50.75
2018-09-18T02:12:42.196Z,50.94
2018-09-18T02:15:13.023Z,50.82
2018-09-18T02:17:43.767Z,50.71
2018-09-18T02:20:13.519Z,50.87
2018-09-18T02:22:43.392Z,50.75
2018-09-18T02:25:13.202Z,51.16
2018-09-18T02:27:43.206Z,50.78
2018-09-18T02:30:13.718Z,51.02
2018-09-18T02:32:44.279Z,50.56
2018-09-18T02:35:16.024Z,50.44
2018-09-18T02:37:46.606Z,50.82
2018-09-18T02:40:17.382Z,51.23
2018-09-18T02:42:48.312Z,51.49
2018-09-18T02:45:19.671Z,51.32
2018-09-18T02:47:49.784Z,52.14
2018-09-18T02:50:20.523Z,52.16
2018-09-18T02:52:50.997Z,51.42
2018-09-18T02:55:21.941Z,51.60
2018-09-18T02:57:52.726Z,51.66
2018-09-18T03:00:23.264Z,51.17
2018-09-18T03:02:54.002Z,51.49
2018-09-18T03:05:25.739Z,51.71
2018-09-18T03:07:56.034Z,51.64
2018-09-18T03:10:26.139Z,51.08
2018-09-18T03:12:56.398Z,51.41
2018-09-18T03:15:27.412Z,50.92
2018-09-18T03:17:57.923Z,51.22
2018-09-18T03:20:28.189Z,53.52
2018-09-18T03:22:58.681Z,53.66
2018-09-18T03:25:30.461Z,52.14
2018-09-18T03:28:01.469Z,52.14
2018-09-18T03:30:32.456Z,52.04
2018-09-18T03:33:03.434Z,52.25
2018-09-18T03:35:35.162Z,52.79
2018-09-18T03:38:05.799Z,52.74
2018-09-18T03:40:36.393Z,53.02
2018-09-18T03:43:06.693Z,52.81
2018-09-18T03:45:37.042Z,52.62
2018-09-18T03:48:06.912Z,53.01
2018-09-18T03:50:36.598Z,52.48
2018-09-18T03:53:06.298Z,53.05
2018-09-18T03:55:36.142Z,52.82
2018-09-18T03:58:05.908Z,53.21
2018-09-18T04:00:35.693Z,52.86
2018-09-18T04:03:05.483Z,52.85
2018-09-18T04:05:35.241Z,52.97
2018-09-18T04:08:05.049Z,52.67
2018-09-18T04:10:34.820Z,53.06
2018-09-18T04:13:04.579Z,53.44
2018-09-18T04:15:34.316Z,55.04
2018-09-18T04:18:04.263Z,53.82
2018-09-18T04:20:34.112Z,53.35
2018-09-18T04:23:03.879Z,52.76
2018-09-18T04:25:33.550Z,52.93
2018-09-18T04:28:03.346Z,52.69
2018-09-18T04:30:33.217Z,52.81
2018-09-18T04:33:03.068Z,52.90
2018-09-18T04:35:33.261Z,53.05
2018-09-18T04:38:04.002Z,52.33
2018-09-18T04:40:34.452Z,59.16
2018-09-18T04:43:04.342Z,60.49
2018-09-18T04:45:34.432Z,56.49
2018-09-18T04:48:04.312Z,55.63
2018-09-18T04:50:34.166Z,56.18
2018-09-18T04:53:03.979Z,56.11
2018-09-18T04:55:33.794Z,55.96
2018-09-18T04:58:03.660Z,54.31
2018-09-18T05:00:33.417Z,54.75
2018-09-18T05:03:03.235Z,54.14
2018-09-18T05:05:33.059Z,51.89
2018-09-18T05:08:02.953Z,53.55
2018-09-18T05:10:32.785Z,52.45
2018-09-18T05:13:02.597Z,51.86
2018-09-18T05:15:32.564Z,52.84
2018-09-18T05:18:02.255Z,52.43
2018-09-18T05:20:32.029Z,51.63
2018-09-18T05:23:01.788Z,49.77
2018-09-18T05:25:31.368Z,50.13
2018-09-18T05:28:01.196Z,50.79
2018-09-18T05:30:30.969Z,52.02
2018-09-18T05:33:00.934Z,53.30
2018-09-18T05:35:30.791Z,54.98
2018-09-18T05:38:00.640Z,55.27
2018-09-18T05:40:30.470Z,54.79
2018-09-18T05:43:00.840Z,55.44
2018-09-18T05:45:31.551Z,54.26
2018-09-18T05:48:02.660Z,54.68
2018-09-18T05:50:33.071Z,54.80
2018-09-18T05:53:03.737Z,52.90
2018-09-18T05:55:34.727Z,52.08
2018-09-18T05:58:05.154Z,51.41
2018-09-18T06:00:35.727Z,49.60
2018-09-18T06:03:06.303Z,49.56
2018-09-18T06:05:37.320Z,50.49
2018-09-18T06:08:07.867Z,48.98
2018-09-18T06:10:37.773Z,46.86
2018-09-18T06:13:07.599Z,47.36
2018-09-18T06:15:37.954Z,47.78
2018-09-18T06:18:07.609Z,47.66
2018-09-18T06:20:37.542Z,45.80
2018-09-18T06:23:07.420Z,46.22
2018-09-18T06:25:37.265Z,44.87
2018-09-18T06:28:07.106Z,45.36
2018-09-18T06:30:36.866Z,43.42
2018-09-18T06:33:06.780Z,43.26
2018-09-18T06:35:36.600Z,42.32
2018-09-18T06:38:06.378Z,41.71
2018-09-18T06:40:36.272Z,41.37
2018-09-18T06:43:06.239Z,41.18
2018-09-18T06:45:36.232Z,39.43
2018-09-18T06:48:06.493Z,39.46
2018-09-18T06:50:36.463Z,38.33
2018-09-18T06:53:06.282Z,38.73
2018-09-18T06:55:36.959Z,37.84
2018-09-18T06:58:06.755Z,37.47
2018-09-18T07:00:36.547Z,36.42
2018-09-18T07:03:06.469Z,34.85
2018-09-18T07:05:36.285Z,34.92
2018-09-18T07:08:06.001Z,34.07
2018-09-18T07:10:35.720Z,35.28
2018-09-18T07:13:05.496Z,33.69
2018-09-18T07:15:35.371Z,33.33
2018-09-18T07:18:05.229Z,32.94
2018-09-18T07:20:35.051Z,33.98
2018-09-18T07:23:04.996Z,32.63
2018-09-18T07:25:34.786Z,32.21
2018-09-18T07:28:04.558Z,29.29
2018-09-18T07:30:34.259Z,30.82
2018-09-18T07:33:04.099Z,29.59
2018-09-18T07:35:34.097Z,30.88
2018-09-18T07:38:03.978Z,30.17
2018-09-18T07:40:33.791Z,29.52
2018-09-18T07:43:03.664Z,28.34
2018-09-18T07:45:33.474Z,28.10
2018-09-18T07:48:03.401Z,30.90
2018-09-18T07:50:33.429Z,29.83
2018-09-18T07:53:03.541Z,31.16
2018-09-18T07:55:33.339Z,30.97
2018-09-18T07:58:03.200Z,29.71
2018-09-18T08:00:33.024Z,30.74
2018-09-18T08:03:02.946Z,28.28
2018-09-18T08:05:32.747Z,27.41
2018-09-18T08:08:02.559Z,29.30
2018-09-18T08:10:32.382Z,28.44
2018-09-18T08:13:02.421Z,26.67
2018-09-18T08:15:32.132Z,26.06
2018-09-18T08:18:01.705Z,26.32
2018-09-18T08:20:31.519Z,26.17
2018-09-18T08:23:01.284Z,27.18
2018-09-18T08:25:31.182Z,27.92
2018-09-18T08:28:00.874Z,26.76
2018-09-18T08:30:30.563Z,28.12
2018-09-18T08:33:00.388Z,27.09
2018-09-18T08:35:30.235Z,26.04
2018-09-18T08:37:59.990Z,24.17
2018-09-18T08:40:29.730Z,25.10
2018-09-18T08:42:59.526Z,25.27
2018-09-18T08:45:29.386Z,25.34
2018-09-18T08:47:59.227Z,24.37
2018-09-18T08:50:29.039Z,24.79
2018-09-18T08:52:59.085Z,24.15
2018-09-18T08:55:28.996Z,23.03
2018-09-18T08:57:58.767Z,21.88
2018-09-18T09:00:28.612Z,22.14
2018-09-18T09:02:58.399Z,20.78
2018-09-18T09:05:28.356Z,21.12
2018-09-18T09:07:58.371Z,20.90
2018-09-18T09:10:28.138Z,21.25
2018-09-18T09:12:57.795Z,21.84
2018-09-18T09:15:27.484Z,20.52
2018-09-18T09:17:57.321Z,20.23
2018-09-18T09:20:27.052Z,19.74
2018-09-18T09:22:57.059Z,19.73
2018-09-18T09:25:26.750Z,19.69
2018-09-18T09:27:56.689Z,18.72
2018-09-18T09:30:26.590Z,17.27
2018-09-18T09:32:56.308Z,17.97
2018-09-18T09:35:25.968Z,17.16
2018-09-18T09:37:55.850Z,17.19
2018-09-18T09:40:25.629Z,16.85
2018-09-18T09:42:55.454Z,16.90
2018-09-18T09:45:25.227Z,16.97
2018-09-18T09:47:55.051Z,16.66
2018-09-18T09:50:24.746Z,17.24
2018-09-18T09:52:54.672Z,16.52
2018-09-18T09:55:24.799Z,16.86
2018-09-18T09:57:54.680Z,17.39
2018-09-18T10:00:29.435Z,17.09
2018-09-18T10:02:59.325Z,16.58
2018-09-18T10:05:30.218Z,15.64
2018-09-18T10:07:59.914Z,16.73
2018-09-18T10:10:29.858Z,16.56
2018-09-18T10:12:59.726Z,16.94
2018-09-18T10:15:30.237Z,16.59
2018-09-18T10:18:00.090Z,17.01
2018-09-18T10:20:29.766Z,16.90
2018-09-18T10:22:59.505Z,16.61
2018-09-18T10:25:29.300Z,16.26
2018-09-18T10:27:59.108Z,16.69
2018-09-18T10:30:28.838Z,16.38
2018-09-18T10:32:58.688Z,15.93
2018-09-18T10:35:28.292Z,14.85
2018-09-18T10:37:57.868Z,14.08
2018-09-18T10:40:27.782Z,15.64
2018-09-18T10:42:57.629Z,15.56
2018-09-18T10:45:27.578Z,14.80
2018-09-18T10:47:57.348Z,15.79
2018-09-18T10:50:27.262Z,16.17
2018-09-18T10:52:57.181Z,16.46
2018-09-18T10:55:27.647Z,16.56
2018-09-18T10:57:57.496Z,16.18
2018-09-18T11:00:27.220Z,15.90
2018-09-18T11:02:56.965Z,16.30
2018-09-18T11:05:26.727Z,16.76
2018-09-18T11:07:56.518Z,17.39
2018-09-18T11:10:26.308Z,17.38
2018-09-18T11:12:56.150Z,16.99
2018-09-18T11:15:26.090Z,17.73
2018-09-18T11:17:55.847Z,16.01
2018-09-18T11:20:25.672Z,16.57
2018-09-18T11:22:55.526Z,16.61
2018-09-18T11:25:25.294Z,16.52
2018-09-18T11:27:55.076Z,16.47
2018-09-18T11:30:24.786Z,16.88
2018-09-18T11:32:54.688Z,16.85
2018-09-18T11:35:24.557Z,15.00
2018-09-18T11:37:54.241Z,15.11
2018-09-18T11:40:24.167Z,15.63
2018-09-18T11:42:54.067Z,15.53
2018-09-18T11:45:23.959Z,16.08
2018-09-18T11:47:53.738Z,15.66
2018-09-18T11:50:23.640Z,15.49
2018-09-18T11:52:53.402Z,15.70
2018-09-18T11:55:23.304Z,15.00
2018-09-18T11:57:53.367Z,14.84
2018-09-18T12:00:23.212Z,15.87
2018-09-18T12:02:53.217Z,14.69
2018-09-18T12:05:23.563Z,14.85
2018-09-18T12:07:53.427Z,14.86
2018-09-18T12:10:23.407Z,14.81
2018-09-18T12:12:53.724Z,14.53
2018-09-18T12:15:24.804Z,13.37
2018-09-18T12:17:54.880Z,13.72
2018-09-18T12:20:24.746Z,14.36
2018-09-18T12:22:54.591Z,14.20
2018-09-18T12:25:24.681Z,15.63
2018-09-18T12:27:54.524Z,15.33
2018-09-18T12:30:24.373Z,16.42
2018-09-18T12:32:54.243Z,15.50
2018-09-18T12:35:24.003Z,15.41
2018-09-18T12:37:53.765Z,15.02
2018-09-18T12:40:23.535Z,15.26
2018-09-18T12:42:53.379Z,15.45
2018-09-18T12:45:23.404Z,16.27
2018-09-18T12:47:53.190Z,16.40
2018-09-18T12:50:23.239Z,16.33
2018-09-18T12:52:52.842Z,15.71
2018-09-18T12:55:22.688Z,14.90
2018-09-18T12:57:52.455Z,15.97
2018-09-18T13:00:22.379Z,16.37
2018-09-18T13:02:52.113Z,15.69
2018-09-18T13:05:21.853Z,15.18
2018-09-18T13:07:51.552Z,14.45
2018-09-18T13:10:21.328Z,14.38
2018-09-18T13:12:51.103Z,15.21
2018-09-18T13:15:20.839Z,14.63
2018-09-18T13:17:50.777Z,13.91
2018-09-18T13:20:20.503Z,14.27
2018-09-18T13:22:50.339Z,15.47
2018-09-18T13:25:19.955Z,16.99
2018-09-18T13:27:49.911Z,17.52
2018-09-18T13:30:20.241Z,17.74
2018-09-18T13:32:49.957Z,17.68
2018-09-18T13:35:19.885Z,17.35
2018-09-18T13:37:49.637Z,17.15
2018-09-18T13:40:19.309Z,17.78
2018-09-18T13:42:49.051Z,18.32
2018-09-18T13:45:19.059Z,18.30
2018-09-18T13:47:48.830Z,17.98
2018-09-18T13:50:18.686Z,18.60
2018-09-18T13:52:48.512Z,19.79
2018-09-18T13:55:18.219Z,20.14
2018-09-18T13:57:48.148Z,20.42
2018-09-18T14:00:17.859Z,20.76
2018-09-18T14:02:47.639Z,22.31
2018-09-18T14:05:17.340Z,23.12
2018-09-18T14:07:47.114Z,21.73
2018-09-18T14:10:17.309Z,21.92
2018-09-18T14:12:47.344Z,21.89
2018-09-18T14:15:17.372Z,22.31
2018-09-18T14:17:47.079Z,23.37
2018-09-18T14:20:16.892Z,23.23
2018-09-18T14:22:46.808Z,22.34
2018-09-18T14:25:16.675Z,21.95
2018-09-18T14:27:46.456Z,21.62
2018-09-18T14:30:16.299Z,21.01
2018-09-18T14:32:46.339Z,20.59
2018-09-18T14:35:16.013Z,20.82
2018-09-18T14:37:45.742Z,21.35
2018-09-18T14:40:15.622Z,22.89
2018-09-18T14:42:45.423Z,23.82
2018-09-18T14:45:15.340Z,23.96
2018-09-18T14:47:45.206Z,24.53
2018-09-18T14:50:15.035Z,24.68
2018-09-18T14:52:44.875Z,24.12
2018-09-18T14:55:14.668Z,23.61
2018-09-18T14:57:44.500Z,25.01
2018-09-18T15:00:14.204Z,25.87
2018-09-18T15:02:43.948Z,28.14
2018-09-18T15:05:13.605Z,26.82
2018-09-18T15:07:43.427Z,26.37
2018-09-18T15:10:13.346Z,27.61
2018-09-18T15:12:43.303Z,29.42
2018-09-18T15:15:13.188Z,27.91
2018-09-18T15:17:43.104Z,27.77
2018-09-18T15:20:12.827Z,28.00
2018-09-18T15:22:42.732Z,28.84
2018-09-18T15:25:12.673Z,29.94
2018-09-18T15:27:42.695Z,29.49
2018-09-18T15:30:12.507Z,30.10
2018-09-18T15:32:42.358Z,31.22
2018-09-18T15:35:12.446Z,32.01
2018-09-18T15:37:42.133Z,32.50
2018-09-18T15:40:11.943Z,33.56
2018-09-18T15:42:41.799Z,33.98
2018-09-18T15:45:11.683Z,33.34
2018-09-18T15:47:41.420Z,33.50
2018-09-18T15:50:11.145Z,34.15
2018-09-18T15:52:40.824Z,33.99
2018-09-18T15:55:10.551Z,32.90
2018-09-18T15:57:40.369Z,31.62
2018-09-18T16:05:00.176Z,33.04
2018-09-18T16:07:30.209Z,33.02
2018-09-18T16:10:00.091Z,32.52
2018-09-18T16:12:30.047Z,35.24
2018-09-18T16:14:59.925Z,36.68
2018-09-18T16:17:29.595Z,36.91
2018-09-18T16:19:59.499Z,37.21
2018-09-18T16:22:29.334Z,37.82
2018-09-18T16:24:59.172Z,38.44
2018-09-18T16:27:29.103Z,38.07
2018-09-18T16:29:58.973Z,38.73
2018-09-18T16:32:28.776Z,38.78
2018-09-18T16:34:58.602Z,38.64
2018-09-18T16:37:28.618Z,38.62
2018-09-18T16:39:58.476Z,39.17
2018-09-18T16:42:28.404Z,39.74
2018-09-18T16:44:58.263Z,41.09
2018-09-18T16:47:28.098Z,40.74
2018-09-18T16:49:57.903Z,40.59
2018-09-18T16:52:27.717Z,40.79
2018-09-18T16:54:57.820Z,40.14
2018-09-18T16:57:27.678Z,40.35
2018-09-18T16:59:57.493Z,40.47
2018-09-18T17:02:27.448Z,40.45
2018-09-18T17:04:57.544Z,39.78
2018-09-18T17:07:27.188Z,39.07
2018-09-18T17:09:56.854Z,40.98
2018-09-18T17:12:26.595Z,40.33
2018-09-18T17:14:56.327Z,41.07
2018-09-18T17:17:25.978Z,40.88
2018-09-18T17:19:55.679Z,40.26
2018-09-18T17:22:25.524Z,40.33
2018-09-18T17:24:55.370Z,40.69
2018-09-18T17:27:25.138Z,41.75
2018-09-18T17:29:55.035Z,41.76
2018-09-18T17:32:24.756Z,40.25
2018-09-18T17:34:54.513Z,39.39
2018-09-18T17:37:24.325Z,39.58
2018-09-18T17:39:54.434Z,39.66
2018-09-18T17:42:24.202Z,39.42
2018-09-18T17:44:54.036Z,39.15
2018-09-18T17:47:23.921Z,39.21
2018-09-18T17:49:53.749Z,39.80
2018-09-18T17:52:23.746Z,40.26
2018-09-18T17:54:53.650Z,39.57
2018-09-18T17:57:23.401Z,39.26
2018-09-18T17:59:53.101Z,40.16
2018-09-18T18:02:22.964Z,39.63
2018-09-18T18:04:52.761Z,40.34
2018-09-18T18:07:22.620Z,40.04
2018-09-18T18:09:52.400Z,40.33
2018-09-18T18:12:22.248Z,39.82
2018-09-18T18:14:52.019Z,41.54
2018-09-18T18:17:21.785Z,41.95
2018-09-18T18:19:51.571Z,40.67
2018-09-18T18:22:21.351Z,40.66
2018-09-18T18:24:51.275Z,40.80
2018-09-18T18:27:21.094Z,41.55
2018-09-18T18:29:50.865Z,41.01
2018-09-18T18:32:20.537Z,41.68
2018-09-18T18:34:50.326Z,41.25
2018-09-18T18:37:20.163Z,41.33
2018-09-18T18:39:50.033Z,40.41
2018-09-18T18:42:20.201Z,40.55
2018-09-18T18:44:50.156Z,40.19
2018-09-18T18:47:19.986Z,40.14
2018-09-18T18:49:49.743Z,39.75
2018-09-18T18:52:19.523Z,40.88
2018-09-18T18:54:49.202Z,40.67
2018-09-18T18:57:19.018Z,41.28
2018-09-18T18:59:48.766Z,40.86
2018-09-18T19:02:18.538Z,40.73
2018-09-18T19:04:48.326Z,41.13
2018-09-18T19:07:18.133Z,41.08
2018-09-18T19:09:47.942Z,41.21
2018-09-18T19:12:17.759Z,42.29
2018-09-18T19:14:47.598Z,41.84
2018-09-18T19:17:17.355Z,42.65
2018-09-18T19:19:47.215Z,41.47
2018-09-18T19:22:17.055Z,41.82
2018-09-18T19:24:47.060Z,41.04
2018-09-18T19:27:16.828Z,42.13
2018-09-18T19:29:46.550Z,41.55
2018-09-18T19:32:16.301Z,42.57
2018-09-18T19:34:46.131Z,42.25
2018-09-18T19:37:15.770Z,42.91
2018-09-18T19:39:45.686Z,42.86
2018-09-18T19:42:15.474Z,42.75
2018-09-18T19:44:45.588Z,42.12
2018-09-18T19:47:15.290Z,42.62
2018-09-18T19:49:45.025Z,42.14
2018-09-18T19:52:14.863Z,43.70
2018-09-18T19:54:44.491Z,46.25
2018-09-18T19:57:14.168Z,47.22
2018-09-18T19:59:44.053Z,46.05
2018-09-18T20:02:13.747Z,44.50
2018-09-18T20:04:43.465Z,44.50
2018-09-18T20:07:13.375Z,44.54
2018-09-18T20:09:43.102Z,47.24
2018-09-18T20:12:12.915Z,46.27
2018-09-18T20:14:42.741Z,45.46
2018-09-18T20:17:12.641Z,44.73
2018-09-18T20:19:42.471Z,44.92
2018-09-18T20:22:12.299Z,45.18
2018-09-18T20:24:41.998Z,44.45
2018-09-18T20:27:11.756Z,44.35
2018-09-18T20:29:41.622Z,44.69
2018-09-18T20:32:11.425Z,43.99
2018-09-18T20:34:41.116Z,46.50
2018-09-18T20:37:10.820Z,47.65
2018-09-18T20:39:40.543Z,46.85
2018-09-18T20:42:10.392Z,46.06
2018-09-18T20:44:40.203Z,45.40
2018-09-18T20:47:10.356Z,45.47
2018-09-18T20:49:40.102Z,45.59
2018-09-18T20:52:09.949Z,44.93
2018-09-18T20:54:39.851Z,44.88
2018-09-18T20:57:09.735Z,44.52
2018-09-18T20:59:39.483Z,44.17
2018-09-18T21:02:09.257Z,44.77
2018-09-18T21:04:39.068Z,44.82
2018-09-18T21:07:08.870Z,44.66
2018-09-18T21:09:38.724Z,45.00
2018-09-18T21:12:08.482Z,44.77
2018-09-18T21:14:38.202Z,44.97
2018-09-18T21:17:08.090Z,45.62
2018-09-18T21:19:37.971Z,45.33
2018-09-18T21:22:07.901Z,45.38
2018-09-18T21:24:37.637Z,46.40
2018-09-18T21:27:07.377Z,47.86
2018-09-18T21:29:37.273Z,46.97
2018-09-18T21:32:07.182Z,46.70
2018-09-18T21:34:37.070Z,45.89
2018-09-18T21:37:07.240Z,46.88
2018-09-18T21:39:36.988Z,46.70
2018-09-18T21:42:06.749Z,46.59
2018-09-18T21:44:36.506Z,46.22
2018-09-18T21:47:06.356Z,46.53
2018-09-18T21:49:36.767Z,46.44
2018-09-18T21:52:06.603Z,46.63
2018-09-18T21:54:36.352Z,46.13
2018-09-18T21:57:06.043Z,46.49
2018-09-18T21:59:35.732Z,46.12
2018-09-18T22:02:05.386Z,46.52
2018-09-18T22:04:35.130Z,46.89
2018-09-18T22:07:04.934Z,46.55
2018-09-18T22:09:34.742Z,46.53
2018-09-18T22:12:04.486Z,47.94
2018-09-18T22:14:34.239Z,47.93
2018-09-18T22:17:04.071Z,48.44
2018-09-18T22:19:33.840Z,47.94
2018-09-18T22:22:03.628Z,47.95
2018-09-18T22:24:33.383Z,48.67
2018-09-18T22:27:03.110Z,48.10
2018-09-18T22:29:32.847Z,48.66
2018-09-18T22:32:02.536Z,50.77
2018-09-18T22:34:32.292Z,52.01
2018-09-18T22:37:02.118Z,49.49
2018-09-18T22:39:32.046Z,49.63
2018-09-18T22:42:01.958Z,48.53
2018-09-18T22:44:31.798Z,47.74
2018-09-18T22:47:01.527Z,47.81
2018-09-18T22:49:31.366Z,48.00
2018-09-18T22:52:01.330Z,47.72
2018-09-18T22:54:31.223Z,48.29
2018-09-18T22:57:00.988Z,48.21
2018-09-18T22:59:30.839Z,48.20
2018-09-18T23:02:00.683Z,48.36
2018-09-18T23:04:30.485Z,47.99
2018-09-18T23:07:00.258Z,48.01
2018-09-18T23:09:30.067Z,49.70
2018-09-18T23:11:59.807Z,49.03
2018-09-18T23:14:29.966Z,48.73
2018-09-18T23:16:59.847Z,48.49
2018-09-18T23:19:29.755Z,48.53
2018-09-18T23:21:59.592Z,48.69
2018-09-18T23:24:29.522Z,47.68
2018-09-18T23:26:59.316Z,48.00
2018-09-18T23:29:29.068Z,47.66
2018-09-18T23:31:58.801Z,48.84
2018-09-18T23:34:28.612Z,48.84
2018-09-18T23:36:58.438Z,49.20
2018-09-18T23:39:28.259Z,49.74
2018-09-18T23:41:57.955Z,49.84
2018-09-18T23:44:28.138Z,50.58
2018-09-18T23:46:57.802Z,49.86
2018-09-18T23:49:27.652Z,49.78
2018-09-18T23:51:57.537Z,49.59
2018-09-18T23:54:27.623Z,50.15
2018-09-18T23:56:57.347Z,50.24
2018-09-18T23:59:27.066Z,49.73
